createdAt,value
2022-07-25T00:00:03.138Z,1009.69
2022-07-25T00:01:03.293Z,1009.71
2022-07-25T00:02:03.495Z,1009.69
2022-07-25T00:03:03.545Z,1009.70
2022-07-25T00:04:04.005Z,1009.68
2022-07-25T00:05:03.734Z,1009.67
2022-07-25T00:06:03.871Z,1009.65
2022-07-25T00:07:04.000Z,1009.64
2022-07-25T00:08:04.109Z,1009.62
2022-07-25T00:09:04.237Z,1009.60
2022-07-25T00:10:04.350Z,1009.58
2022-07-25T00:11:04.490Z,1009.59
2022-07-25T00:12:04.637Z,1009.62
2022-07-25T00:13:04.694Z,1009.59
2022-07-25T00:14:05.160Z,1009.59
2022-07-25T00:15:04.908Z,1009.59
2022-07-25T00:16:05.118Z,1009.61
2022-07-25T00:17:05.111Z,1009.60
2022-07-25T00:18:05.228Z,1009.55
2022-07-25T00:19:05.360Z,1009.56
2022-07-25T00:20:05.473Z,1009.53
2022-07-25T00:21:05.606Z,1009.55
2022-07-25T00:22:05.742Z,1009.46
2022-07-25T00:23:05.836Z,1009.47
2022-07-25T00:24:06.270Z,1009.44
2022-07-25T00:25:06.059Z,1009.41
2022-07-25T00:26:06.189Z,1009.43
2022-07-25T00:27:06.298Z,1009.42
2022-07-25T00:28:06.457Z,1009.41
2022-07-25T00:29:06.578Z,1009.43
2022-07-25T00:30:06.694Z,1009.43
2022-07-25T00:31:06.891Z,1009.39
2022-07-25T00:32:06.904Z,1009.43
2022-07-25T00:33:07.016Z,1009.39
2022-07-25T00:34:07.500Z,1009.40
2022-07-25T00:35:07.217Z,1009.38
2022-07-25T00:36:07.366Z,1009.39
2022-07-25T00:37:07.483Z,1009.39
2022-07-25T00:38:07.606Z,1009.37
2022-07-25T00:39:07.726Z,1009.39
2022-07-25T00:40:07.842Z,1009.40
2022-07-25T00:41:07.986Z,1009.38
2022-07-25T00:42:08.122Z,1009.40
2022-07-25T00:43:08.241Z,1009.38
2022-07-25T00:44:08.810Z,1009.37
2022-07-25T00:45:08.478Z,1009.36
2022-07-25T00:46:08.727Z,1009.34
2022-07-25T00:47:08.746Z,1009.36
2022-07-25T00:48:08.879Z,1009.32
2022-07-25T00:49:09.077Z,1009.30
2022-07-25T00:50:09.125Z,1009.28
2022-07-25T00:51:09.258Z,1009.26
2022-07-25T00:52:09.376Z,1009.29
2022-07-25T00:53:09.495Z,1009.28
2022-07-25T00:54:09.608Z,1009.20
2022-07-25T00:55:09.743Z,1009.22
2022-07-25T00:56:09.892Z,1009.19
2022-07-25T00:57:10.024Z,1009.19
2022-07-25T00:58:10.158Z,1009.16
2022-07-25T00:59:10.280Z,1009.19
2022-07-25T01:00:10.410Z,1009.19
2022-07-25T01:01:10.608Z,1009.16
2022-07-25T01:02:10.718Z,1009.17
2022-07-25T01:03:10.853Z,1009.15
2022-07-25T01:04:10.900Z,1009.16
2022-07-25T01:05:11.069Z,1009.13
2022-07-25T01:06:11.206Z,1009.15
2022-07-25T01:07:11.320Z,1009.13
2022-07-25T01:08:11.477Z,1009.11
2022-07-25T01:09:11.613Z,1009.11
2022-07-25T01:10:11.727Z,1009.09
2022-07-25T01:11:11.861Z,1009.08
2022-07-25T01:12:11.980Z,1009.07
2022-07-25T01:13:12.120Z,1009.08
2022-07-25T01:14:12.249Z,1009.10
2022-07-25T01:15:12.377Z,1009.10
2022-07-25T01:16:12.593Z,1009.11
2022-07-25T01:17:12.593Z,1009.12
2022-07-25T01:18:12.714Z,1009.07
2022-07-25T01:19:12.834Z,1009.07
2022-07-25T01:20:12.961Z,1009.10
2022-07-25T01:21:13.098Z,1009.06
2022-07-25T01:22:13.217Z,1009.02
2022-07-25T01:23:13.347Z,1009.02
2022-07-25T01:24:13.477Z,1009.01
2022-07-25T01:25:13.598Z,1009.01
2022-07-25T01:26:13.748Z,1008.96
2022-07-25T01:27:17.342Z,1008.99
2022-07-25T01:28:14.046Z,1008.92
2022-07-25T01:29:14.215Z,1008.96
2022-07-25T01:30:14.339Z,1008.99
2022-07-25T01:31:14.522Z,1008.95
2022-07-25T01:32:14.626Z,1008.93
2022-07-25T01:33:14.749Z,1008.92
2022-07-25T01:34:14.874Z,1008.97
2022-07-25T01:35:15.010Z,1008.91
2022-07-25T01:36:15.162Z,1008.92
2022-07-25T01:37:15.293Z,1008.92
2022-07-25T01:38:15.417Z,1008.94
2022-07-25T01:39:15.542Z,1008.95
2022-07-25T01:40:15.683Z,1008.94
2022-07-25T01:41:22.509Z,1008.91
2022-07-25T01:42:16.904Z,1008.91
2022-07-25T01:43:16.034Z,1008.90
2022-07-25T01:44:16.147Z,1008.90
2022-07-25T01:45:16.281Z,1008.92
2022-07-25T01:46:16.470Z,1008.91
2022-07-25T01:47:16.476Z,1008.87
2022-07-25T01:48:16.934Z,1008.82
2022-07-25T01:49:16.765Z,1008.83
2022-07-25T01:50:16.874Z,1008.80
2022-07-25T01:51:20.447Z,1008.75
2022-07-25T01:52:17.101Z,1008.75
2022-07-25T01:53:17.227Z,1008.75
2022-07-25T01:54:17.344Z,1008.77
2022-07-25T01:55:17.463Z,1008.74
2022-07-25T01:56:17.604Z,1008.75
2022-07-25T01:57:17.706Z,1008.76
2022-07-25T01:58:17.858Z,1008.71
2022-07-25T01:59:17.929Z,1008.71
2022-07-25T02:00:18.066Z,1008.69
2022-07-25T02:01:19.511Z,1008.69
2022-07-25T02:02:18.322Z,1008.65
2022-07-25T02:03:18.356Z,1008.68
2022-07-25T02:04:18.498Z,1008.68
2022-07-25T02:05:18.611Z,1008.67
2022-07-25T02:06:18.779Z,1008.66
2022-07-25T02:07:18.896Z,1008.68
2022-07-25T02:08:19.035Z,1008.65
2022-07-25T02:09:19.167Z,1008.65
2022-07-25T02:10:19.314Z,1008.63
2022-07-25T02:11:19.487Z,1008.65
2022-07-25T02:12:19.619Z,1008.63
2022-07-25T02:13:19.721Z,1008.66
2022-07-25T02:14:19.843Z,1008.64
2022-07-25T02:15:19.985Z,1008.62
2022-07-25T02:16:20.192Z,1008.66
2022-07-25T02:17:21.272Z,1008.66
2022-07-25T02:18:20.392Z,1008.61
2022-07-25T02:19:20.543Z,1008.59
2022-07-25T02:20:20.582Z,1008.59
2022-07-25T02:21:20.770Z,1008.59
2022-07-25T02:22:20.802Z,1008.57
2022-07-25T02:23:21.025Z,1008.56
2022-07-25T02:24:21.062Z,1008.54
2022-07-25T02:25:21.208Z,1008.54
2022-07-25T02:26:21.347Z,1008.53
2022-07-25T02:27:21.470Z,1008.50
2022-07-25T02:28:21.600Z,1008.46
2022-07-25T02:29:22.054Z,1008.45
2022-07-25T02:30:21.804Z,1008.46
2022-07-25T02:31:21.978Z,1008.44
2022-07-25T02:32:22.099Z,1008.42
2022-07-25T02:33:22.241Z,1008.45
2022-07-25T02:34:22.359Z,1008.42
2022-07-25T02:35:22.501Z,1008.43
2022-07-25T02:36:22.649Z,1008.40
2022-07-25T02:37:22.788Z,1008.42
2022-07-25T02:38:22.920Z,1008.38
2022-07-25T02:39:23.037Z,1008.39
2022-07-25T02:40:23.170Z,1008.34
2022-07-25T02:41:23.313Z,1008.38
2022-07-25T02:42:23.441Z,1008.33
2022-07-25T02:43:23.573Z,1008.31
2022-07-25T02:44:23.705Z,1008.26
2022-07-25T02:45:24.662Z,1008.29
2022-07-25T02:46:24.092Z,1008.22
2022-07-25T02:47:24.194Z,1008.23
2022-07-25T02:48:24.317Z,1008.27
2022-07-25T02:49:24.442Z,1008.21
2022-07-25T02:50:24.570Z,1008.21
2022-07-25T02:51:25.148Z,1008.22
2022-07-25T02:52:25.093Z,1008.22
2022-07-25T02:53:47.179Z,1008.20
2022-07-25T02:54:26.173Z,1008.17
2022-07-25T02:55:25.642Z,1008.17
2022-07-25T02:56:25.361Z,1008.16
2022-07-25T02:57:25.498Z,1008.16
2022-07-25T02:58:25.654Z,1008.16
2022-07-25T02:59:25.770Z,1008.19
2022-07-25T03:00:26.882Z,1008.18
2022-07-25T03:01:26.086Z,1008.16
2022-07-25T03:02:26.126Z,1008.14
2022-07-25T03:03:26.287Z,1008.20
2022-07-25T03:04:26.461Z,1008.17
2022-07-25T03:05:26.577Z,1008.18
2022-07-25T03:06:26.731Z,1008.16
2022-07-25T03:07:26.867Z,1008.15
2022-07-25T03:08:26.994Z,1008.13
2022-07-25T03:09:27.129Z,1008.12
2022-07-25T03:10:27.270Z,1008.16
2022-07-25T03:11:27.415Z,1008.09
2022-07-25T03:12:27.545Z,1008.09
2022-07-25T03:13:34.675Z,1008.07
2022-07-25T03:14:27.795Z,1008.10
2022-07-25T03:15:27.945Z,1008.08
2022-07-25T03:16:28.121Z,1008.11
2022-07-25T03:17:28.227Z,1008.10
2022-07-25T03:18:28.363Z,1008.09
2022-07-25T03:19:28.522Z,1008.01
2022-07-25T03:20:28.644Z,1008.01
2022-07-25T03:21:28.790Z,1008.00
2022-07-25T03:22:28.916Z,1008.00
2022-07-25T03:23:29.042Z,1007.97
2022-07-25T03:24:29.173Z,1007.95
2022-07-25T03:25:29.308Z,1007.92
2022-07-25T03:26:29.461Z,1007.93
2022-07-25T03:27:29.594Z,1007.91
2022-07-25T03:28:29.709Z,1007.88
2022-07-25T03:29:29.838Z,1007.88
2022-07-25T03:30:29.954Z,1007.92
2022-07-25T03:31:30.224Z,1007.90
2022-07-25T03:32:30.245Z,1007.90
2022-07-25T03:33:30.365Z,1007.89
2022-07-25T03:34:30.486Z,1007.87
2022-07-25T03:35:30.624Z,1007.89
2022-07-25T03:36:30.766Z,1007.81
2022-07-25T03:37:30.888Z,1007.85
2022-07-25T03:38:31.010Z,1007.85
2022-07-25T03:39:31.134Z,1007.85
2022-07-25T03:40:31.257Z,1007.83
2022-07-25T03:41:31.400Z,1007.83
2022-07-25T03:42:35.471Z,1007.83
2022-07-25T03:43:31.696Z,1007.88
2022-07-25T03:44:31.815Z,1007.82
2022-07-25T03:45:31.969Z,1007.83
2022-07-25T03:46:32.082Z,1007.80
2022-07-25T03:47:32.175Z,1007.79
2022-07-25T03:48:32.314Z,1007.77
2022-07-25T03:49:32.411Z,1007.77
2022-07-25T03:50:32.532Z,1007.75
2022-07-25T03:51:32.683Z,1007.73
2022-07-25T03:52:32.811Z,1007.71
2022-07-25T03:53:32.931Z,1007.72
2022-07-25T03:54:33.044Z,1007.71
2022-07-25T03:55:33.180Z,1007.70
2022-07-25T03:56:33.327Z,1007.73
2022-07-25T03:57:33.432Z,1007.70
2022-07-25T03:58:33.556Z,1007.71
2022-07-25T03:59:33.683Z,1007.71
2022-07-25T04:00:33.804Z,1007.70
2022-07-25T04:01:34.013Z,1007.67
2022-07-25T04:02:34.064Z,1007.70
2022-07-25T04:03:40.637Z,1007.66
2022-07-25T04:04:34.244Z,1007.64
2022-07-25T04:05:34.362Z,1007.63
2022-07-25T04:06:34.514Z,1007.62
2022-07-25T04:07:34.632Z,1007.63
2022-07-25T04:08:34.716Z,1007.62
2022-07-25T04:09:35.005Z,1007.64
2022-07-25T04:10:34.995Z,1007.61
2022-07-25T04:11:35.134Z,1007.62
2022-07-25T04:12:35.268Z,1007.65
2022-07-25T04:13:35.382Z,1007.61
2022-07-25T04:14:35.504Z,1007.59
2022-07-25T04:15:35.623Z,1007.55
2022-07-25T04:16:35.784Z,1007.63
2022-07-25T04:17:35.809Z,1007.57
2022-07-25T04:18:35.881Z,1007.57
2022-07-25T04:19:35.995Z,1007.58
2022-07-25T04:20:36.156Z,1007.57
2022-07-25T04:21:36.287Z,1007.58
2022-07-25T04:22:36.414Z,1007.58
2022-07-25T04:23:36.543Z,1007.61
2022-07-25T04:24:36.672Z,1007.59
2022-07-25T04:25:36.792Z,1007.58
2022-07-25T04:26:36.923Z,1007.54
2022-07-25T04:27:37.046Z,1007.59
2022-07-25T04:28:37.167Z,1007.57
2022-07-25T04:29:37.286Z,1007.54
2022-07-25T04:30:37.420Z,1007.54
2022-07-25T04:31:37.565Z,1007.50
2022-07-25T04:32:37.591Z,1007.44
2022-07-25T04:33:37.708Z,1007.47
2022-07-25T04:34:37.815Z,1007.48
2022-07-25T04:35:37.937Z,1007.42
2022-07-25T04:36:38.061Z,1007.41
2022-07-25T04:37:38.179Z,1007.37
2022-07-25T04:38:38.313Z,1007.36
2022-07-25T04:39:38.429Z,1007.30
2022-07-25T04:40:38.541Z,1007.29
2022-07-25T04:41:38.679Z,1007.26
2022-07-25T04:42:38.805Z,1007.27
2022-07-25T04:43:38.922Z,1007.24
2022-07-25T04:44:39.039Z,1007.18
2022-07-25T04:45:39.224Z,1007.24
2022-07-25T04:46:39.243Z,1007.23
2022-07-25T04:47:39.359Z,1007.16
2022-07-25T04:48:39.492Z,1007.12
2022-07-25T04:49:39.589Z,1007.07
2022-07-25T04:50:39.701Z,1007.03
2022-07-25T04:51:39.830Z,1007.02
2022-07-25T04:52:39.981Z,1007.02
2022-07-25T04:53:40.097Z,1007.01
2022-07-25T04:54:40.227Z,1006.97
2022-07-25T04:55:40.361Z,1006.99
2022-07-25T04:56:40.502Z,1006.95
2022-07-25T04:57:40.619Z,1006.91
2022-07-25T04:58:40.727Z,1006.92
2022-07-25T04:59:40.841Z,1006.91
2022-07-25T05:00:40.994Z,1006.91
2022-07-25T05:01:41.119Z,1006.94
2022-07-25T05:02:41.312Z,1006.87
2022-07-25T05:03:41.300Z,1006.89
2022-07-25T05:04:45.339Z,1006.91
2022-07-25T05:05:41.538Z,1006.89
2022-07-25T05:06:41.661Z,1006.86
2022-07-25T05:07:41.779Z,1006.86
2022-07-25T05:08:41.888Z,1006.90
2022-07-25T05:09:42.018Z,1006.87
2022-07-25T05:10:42.126Z,1006.85
2022-07-25T05:11:46.968Z,1006.88
2022-07-25T05:12:43.330Z,1006.86
2022-07-25T05:13:42.453Z,1006.83
2022-07-25T05:14:42.576Z,1006.80
2022-07-25T05:15:42.686Z,1006.83
2022-07-25T05:16:42.956Z,1006.84
2022-07-25T05:17:42.968Z,1006.80
2022-07-25T05:18:43.079Z,1006.83
2022-07-25T05:19:43.197Z,1006.79
2022-07-25T05:20:43.307Z,1006.77
2022-07-25T05:21:43.446Z,1006.76
2022-07-25T05:22:43.566Z,1006.79
2022-07-25T05:23:43.691Z,1006.78
2022-07-25T05:24:43.805Z,1006.75
2022-07-25T05:25:43.922Z,1006.71
2022-07-25T05:26:44.046Z,1006.76
2022-07-25T05:27:44.160Z,1006.73
2022-07-25T05:28:44.275Z,1006.71
2022-07-25T05:29:44.386Z,1006.68
2022-07-25T05:30:44.496Z,1006.69
2022-07-25T05:31:44.669Z,1006.68
2022-07-25T05:32:44.708Z,1006.67
2022-07-25T05:33:44.812Z,1006.70
2022-07-25T05:34:44.910Z,1006.65
2022-07-25T05:35:45.026Z,1006.70
2022-07-25T05:36:47.297Z,1006.61
2022-07-25T05:37:45.276Z,1006.66
2022-07-25T05:38:45.382Z,1006.63
2022-07-25T05:39:45.495Z,1006.63
2022-07-25T05:40:45.605Z,1006.59
2022-07-25T05:41:45.737Z,1006.61
2022-07-25T05:42:45.849Z,1006.60
2022-07-25T05:43:45.955Z,1006.62
2022-07-25T05:44:46.066Z,1006.60
2022-07-25T05:45:46.177Z,1006.58
2022-07-25T05:46:46.384Z,1006.64
2022-07-25T05:47:46.388Z,1006.62
2022-07-25T05:48:46.554Z,1006.62
2022-07-25T05:49:46.586Z,1006.60
2022-07-25T05:50:46.695Z,1006.57
2022-07-25T05:51:46.826Z,1006.56
2022-07-25T05:52:46.935Z,1006.57
2022-07-25T05:53:47.036Z,1006.56
2022-07-25T05:54:47.154Z,1006.60
2022-07-25T05:55:47.262Z,1006.62
2022-07-25T05:56:47.391Z,1006.60
2022-07-25T05:57:47.521Z,1006.58
2022-07-25T05:58:47.620Z,1006.59
2022-07-25T05:59:47.722Z,1006.62
2022-07-25T06:00:47.825Z,1006.58
2022-07-25T06:01:48.047Z,1006.57
2022-07-25T06:02:48.183Z,1006.48
2022-07-25T06:03:48.207Z,1006.49
2022-07-25T06:04:48.323Z,1006.52
2022-07-25T06:05:48.425Z,1006.48
2022-07-25T06:06:48.540Z,1006.48
2022-07-25T06:07:48.655Z,1006.48
2022-07-25T06:08:48.755Z,1006.44
2022-07-25T06:09:48.867Z,1006.45
2022-07-25T06:10:48.970Z,1006.42
2022-07-25T06:11:54.422Z,1006.39
2022-07-25T06:12:50.135Z,1006.35
2022-07-25T06:13:49.233Z,1006.36
2022-07-25T06:14:49.311Z,1006.39
2022-07-25T06:15:49.458Z,1006.37
2022-07-25T06:16:49.505Z,1006.37
2022-07-25T06:17:49.610Z,1006.37
2022-07-25T06:18:49.718Z,1006.34
2022-07-25T06:19:49.836Z,1006.34
2022-07-25T06:20:49.927Z,1006.28
2022-07-25T06:21:50.062Z,1006.30
2022-07-25T06:22:50.144Z,1006.23
2022-07-25T06:23:50.257Z,1006.29
2022-07-25T06:24:50.358Z,1006.28
2022-07-25T06:25:50.694Z,1006.28
2022-07-25T06:26:50.605Z,1006.30
2022-07-25T06:27:50.703Z,1006.26
2022-07-25T06:28:50.795Z,1006.24
2022-07-25T06:29:50.895Z,1006.24
2022-07-25T06:30:50.985Z,1006.21
2022-07-25T06:31:51.188Z,1006.27
2022-07-25T06:32:51.151Z,1006.21
2022-07-25T06:33:51.243Z,1006.23
2022-07-25T06:34:51.343Z,1006.20
2022-07-25T06:35:51.425Z,1006.16
2022-07-25T06:36:51.512Z,1006.11
2022-07-25T06:37:51.629Z,1006.08
2022-07-25T06:38:51.722Z,1006.05
2022-07-25T06:39:51.814Z,1006.02
2022-07-25T06:40:51.915Z,1006.03
2022-07-25T06:41:52.015Z,1006.03
2022-07-25T06:42:52.105Z,1005.99
2022-07-25T06:43:52.191Z,1005.99
2022-07-25T06:44:52.281Z,1006.00
2022-07-25T06:45:52.365Z,1005.98
2022-07-25T06:46:52.513Z,1005.99
2022-07-25T06:47:52.524Z,1006.02
2022-07-25T06:48:52.659Z,1006.01
2022-07-25T06:49:52.669Z,1006.03
2022-07-25T06:50:52.766Z,1005.96
2022-07-25T06:51:52.886Z,1005.91
2022-07-25T06:52:52.976Z,1005.94
2022-07-25T06:53:53.058Z,1005.93
2022-07-25T06:54:53.156Z,1005.92
2022-07-25T06:55:53.238Z,1005.86
2022-07-25T06:56:53.322Z,1005.91
2022-07-25T06:57:53.414Z,1005.86
2022-07-25T06:58:53.501Z,1005.88
2022-07-25T06:59:53.587Z,1005.86
2022-07-25T07:00:53.679Z,1005.88
2022-07-25T07:01:53.715Z,1005.81
2022-07-25T07:02:53.821Z,1005.85
2022-07-25T07:03:53.993Z,1005.87
2022-07-25T07:04:53.991Z,1005.81
2022-07-25T07:05:54.064Z,1005.79
2022-07-25T07:06:54.154Z,1005.76
2022-07-25T07:07:54.236Z,1005.73
2022-07-25T07:08:54.324Z,1005.73
2022-07-25T07:09:54.398Z,1005.68
2022-07-25T07:10:54.417Z,1005.67
2022-07-25T07:11:54.514Z,1005.64
2022-07-25T07:12:54.590Z,1005.58
2022-07-25T07:13:54.673Z,1005.61
2022-07-25T07:15:01.346Z,1005.60
2022-07-25T07:15:54.910Z,1005.59
2022-07-25T07:16:54.897Z,1005.55
2022-07-25T07:17:54.972Z,1005.56
2022-07-25T07:18:55.046Z,1005.56
2022-07-25T07:19:55.115Z,1005.51
2022-07-25T07:20:55.190Z,1005.53
2022-07-25T07:21:55.287Z,1005.58
2022-07-25T07:22:55.374Z,1005.49
2022-07-25T07:23:55.415Z,1005.53
2022-07-25T07:24:55.466Z,1005.52
2022-07-25T07:25:55.485Z,1005.51
2022-07-25T07:26:55.576Z,1005.50
2022-07-25T07:27:55.646Z,1005.52
2022-07-25T07:28:55.720Z,1005.52
2022-07-25T07:29:55.796Z,1005.56
2022-07-25T07:31:56.940Z,1005.52
2022-07-25T07:32:55.919Z,1005.52
2022-07-25T07:33:55.987Z,1005.47
2022-07-25T07:34:56.057Z,1005.50
2022-07-25T07:35:56.120Z,1005.51
2022-07-25T07:36:56.186Z,1005.46
2022-07-25T07:37:56.238Z,1005.44
2022-07-25T07:38:56.297Z,1005.46
2022-07-25T07:39:56.374Z,1005.45
2022-07-25T07:40:56.446Z,1005.45
2022-07-25T07:41:56.502Z,1005.50
2022-07-25T07:42:56.565Z,1005.44
2022-07-25T07:43:56.607Z,1005.42
2022-07-25T07:44:56.657Z,1005.40
2022-07-25T07:45:56.731Z,1005.44
2022-07-25T07:46:56.824Z,1005.40
2022-07-25T07:47:56.755Z,1005.36
2022-07-25T07:48:56.867Z,1005.35
2022-07-25T07:49:56.808Z,1005.44
2022-07-25T07:50:56.866Z,1005.42
2022-07-25T07:51:56.920Z,1005.46
2022-07-25T07:52:57.005Z,1005.39
2022-07-25T07:53:57.056Z,1005.41
2022-07-25T07:54:59.418Z,1005.37
2022-07-25T07:55:57.177Z,1005.41
2022-07-25T07:56:57.222Z,1005.35
2022-07-25T07:57:57.269Z,1005.34
2022-07-25T07:58:57.306Z,1005.36
2022-07-25T07:59:57.337Z,1005.38
2022-07-25T08:00:57.367Z,1005.29
2022-07-25T08:01:57.460Z,1005.35
2022-07-25T08:02:57.535Z,1005.28
2022-07-25T08:03:57.460Z,1005.27
2022-07-25T08:04:57.490Z,1005.40
2022-07-25T08:05:57.521Z,1005.28
2022-07-25T08:06:57.592Z,1005.31
2022-07-25T08:07:57.621Z,1005.28
2022-07-25T08:08:57.642Z,1005.24
2022-07-25T08:09:57.662Z,1005.25
2022-07-25T08:10:59.115Z,1005.23
2022-07-25T08:11:57.696Z,1005.17
2022-07-25T08:12:57.735Z,1005.17
2022-07-25T08:13:57.739Z,1005.17
2022-07-25T08:14:57.762Z,1005.11
2022-07-25T08:15:57.815Z,1005.22
2022-07-25T08:16:57.833Z,1005.18
2022-07-25T08:17:57.859Z,1005.20
2022-07-25T08:18:57.895Z,1005.30
2022-07-25T08:20:14.443Z,1005.16
2022-07-25T08:20:58.875Z,1005.10
2022-07-25T08:21:57.886Z,1005.18
2022-07-25T08:22:57.914Z,1005.11
2022-07-25T08:23:57.943Z,1005.15
2022-07-25T08:24:57.878Z,1005.12
2022-07-25T08:25:57.893Z,1005.07
2022-07-25T08:26:57.929Z,1005.25
2022-07-25T08:27:57.843Z,1005.24
2022-07-25T08:29:17.593Z,1005.21
2022-07-25T08:29:58.823Z,1005.17
2022-07-25T08:30:57.858Z,1005.14
2022-07-25T08:31:57.859Z,1005.18
2022-07-25T08:32:57.867Z,1005.18
2022-07-25T08:33:57.870Z,1005.15
2022-07-25T08:34:57.872Z,1005.16
2022-07-25T08:35:57.862Z,1005.01
2022-07-25T08:36:57.883Z,1005.05
2022-07-25T08:37:57.902Z,1005.00
2022-07-25T08:38:57.922Z,1004.91
2022-07-25T08:39:57.927Z,1005.04
2022-07-25T08:40:57.930Z,1004.96
2022-07-25T08:41:57.921Z,1005.05
2022-07-25T08:42:57.973Z,1005.00
2022-07-25T08:43:57.843Z,1004.98
2022-07-25T08:44:57.832Z,1004.92
2022-07-25T08:45:57.881Z,1004.93
2022-07-25T08:46:57.936Z,1004.94
2022-07-25T08:47:57.818Z,1004.93
2022-07-25T08:48:57.929Z,1004.81
2022-07-25T08:50:02.368Z,1004.83
2022-07-25T08:50:58.691Z,1004.84
2022-07-25T08:51:57.695Z,1004.90
2022-07-25T08:53:23.017Z,1004.80
2022-07-25T08:53:58.598Z,1004.88
2022-07-25T08:54:57.569Z,1004.82
2022-07-25T08:55:57.564Z,1004.83
2022-07-25T08:56:57.540Z,1004.83
2022-07-25T08:57:57.525Z,1004.85
2022-07-25T08:58:57.533Z,1004.85
2022-07-25T08:59:57.514Z,1004.89
2022-07-25T09:00:57.497Z,1004.87
2022-07-25T09:01:57.509Z,1004.84
2022-07-25T09:02:57.470Z,1004.82
2022-07-25T09:03:57.345Z,1004.87
2022-07-25T09:04:57.320Z,1004.93
2022-07-25T09:05:57.296Z,1004.86
2022-07-25T09:06:57.278Z,1004.81
2022-07-25T09:07:57.254Z,1004.81
2022-07-25T09:08:57.233Z,1004.83
2022-07-25T09:09:57.201Z,1004.73
2022-07-25T09:10:57.178Z,1004.71
2022-07-25T09:11:57.153Z,1004.69
2022-07-25T09:12:57.143Z,1004.71
2022-07-25T09:14:05.136Z,1004.66
2022-07-25T09:14:57.022Z,1004.65
2022-07-25T09:15:59.685Z,1004.55
2022-07-25T09:16:58.623Z,1004.62
2022-07-25T09:17:56.826Z,1004.63
2022-07-25T09:18:56.789Z,1004.58
2022-07-25T09:19:56.781Z,1004.61
2022-07-25T09:20:56.743Z,1004.63
2022-07-25T09:21:56.712Z,1004.50
2022-07-25T09:22:56.669Z,1004.55
2022-07-25T09:23:56.550Z,1004.51
2022-07-25T09:24:56.521Z,1004.50
2022-07-25T09:25:56.488Z,1004.44
2022-07-25T09:26:56.452Z,1004.43
2022-07-25T09:27:56.423Z,1004.35
2022-07-25T09:28:56.392Z,1004.36
2022-07-25T09:29:56.372Z,1004.35
2022-07-25T09:30:56.451Z,1004.28
2022-07-25T09:31:56.308Z,1004.26
2022-07-25T09:32:56.268Z,1004.19
2022-07-25T09:33:56.254Z,1004.19
2022-07-25T09:34:56.203Z,1004.12
2022-07-25T09:35:56.171Z,1004.02
2022-07-25T09:36:56.129Z,1004.08
2022-07-25T09:37:56.074Z,1004.03
2022-07-25T09:38:56.035Z,1004.10
2022-07-25T09:39:55.987Z,1004.03
2022-07-25T09:40:55.946Z,1003.97
2022-07-25T09:41:55.902Z,1003.93
2022-07-25T09:42:55.858Z,1004.16
2022-07-25T09:43:55.815Z,1003.96
2022-07-25T09:44:55.765Z,1003.97
2022-07-25T09:45:55.803Z,1003.88
2022-07-25T09:46:55.677Z,1003.86
2022-07-25T09:47:55.648Z,1003.89
2022-07-25T09:48:55.661Z,1003.84
2022-07-25T09:49:55.503Z,1003.80
2022-07-25T09:50:55.467Z,1003.79
2022-07-25T09:51:55.420Z,1003.74
2022-07-25T09:52:55.380Z,1003.72
2022-07-25T09:53:55.335Z,1003.66
2022-07-25T09:54:55.285Z,1003.77
2022-07-25T09:55:55.245Z,1003.73
2022-07-25T09:56:55.210Z,1003.68
2022-07-25T09:57:55.175Z,1003.72
2022-07-25T09:58:55.120Z,1003.69
2022-07-25T09:59:55.074Z,1003.72
2022-07-25T10:00:55.036Z,1003.72
2022-07-25T10:01:55.031Z,1003.66
2022-07-25T10:02:55.039Z,1003.66
2022-07-25T10:03:54.813Z,1003.65
2022-07-25T10:04:54.764Z,1003.48
2022-07-25T10:05:54.709Z,1003.53
2022-07-25T10:06:54.658Z,1003.50
2022-07-25T10:07:54.604Z,1003.46
2022-07-25T10:08:54.556Z,1003.45
2022-07-25T10:09:54.494Z,1003.44
2022-07-25T10:10:54.446Z,1003.47
2022-07-25T10:11:54.387Z,1003.48
2022-07-25T10:12:54.325Z,1003.63
2022-07-25T10:13:54.273Z,1003.40
2022-07-25T10:14:54.235Z,1003.54
2022-07-25T10:15:54.182Z,1003.36
2022-07-25T10:16:54.151Z,1003.31
2022-07-25T10:17:54.074Z,1003.30
2022-07-25T10:18:54.016Z,1003.37
2022-07-25T10:19:58.539Z,1003.29
2022-07-25T10:20:54.850Z,1003.40
2022-07-25T10:21:53.795Z,1003.27
2022-07-25T10:22:56.587Z,1003.27
2022-07-25T10:23:53.677Z,1003.24
2022-07-25T10:24:53.623Z,1003.19
2022-07-25T10:25:53.566Z,1003.24
2022-07-25T10:26:53.522Z,1003.19
2022-07-25T10:27:53.468Z,1003.20
2022-07-25T10:28:53.390Z,1003.22
2022-07-25T10:29:53.342Z,1003.14
2022-07-25T10:30:53.334Z,1003.16
2022-07-25T10:31:53.184Z,1003.12
2022-07-25T10:32:53.126Z,1003.07
2022-07-25T10:33:53.093Z,1003.15
2022-07-25T10:34:53.031Z,1003.19
2022-07-25T10:35:52.977Z,1003.07
2022-07-25T10:36:52.926Z,1003.08
2022-07-25T10:37:52.875Z,1003.23
2022-07-25T10:38:52.821Z,1003.21
2022-07-25T10:39:52.756Z,1003.03
2022-07-25T10:40:52.696Z,1002.98
2022-07-25T10:41:52.659Z,1002.98
2022-07-25T10:42:52.609Z,1002.88
2022-07-25T10:43:52.563Z,1003.02
2022-07-25T10:44:52.504Z,1002.89
2022-07-25T10:45:52.493Z,1002.90
2022-07-25T10:46:52.307Z,1002.89
2022-07-25T10:47:52.255Z,1002.85
2022-07-25T10:48:52.922Z,1002.87
2022-07-25T10:50:14.477Z,1002.81
2022-07-25T10:50:55.840Z,1002.83
2022-07-25T10:51:51.943Z,1002.95
2022-07-25T10:52:51.878Z,1002.68
2022-07-25T10:53:51.837Z,1002.98
2022-07-25T10:54:51.778Z,1002.87
2022-07-25T10:56:05.015Z,1002.83
2022-07-25T10:56:52.632Z,1002.80
2022-07-25T10:58:16.057Z,1002.93
2022-07-25T10:58:52.500Z,1002.76
2022-07-25T10:59:51.441Z,1002.71
2022-07-25T11:00:51.650Z,1002.72
2022-07-25T11:01:51.371Z,1002.70
2022-07-25T11:02:51.357Z,1002.76
2022-07-25T11:03:51.218Z,1002.64
2022-07-25T11:04:51.163Z,1002.56
2022-07-25T11:05:51.091Z,1002.59
2022-07-25T11:06:51.049Z,1002.64
2022-07-25T11:08:11.530Z,1002.63
2022-07-25T11:08:51.915Z,1002.57
2022-07-25T11:09:50.858Z,1002.63
2022-07-25T11:10:50.809Z,1002.57
2022-07-25T11:11:50.750Z,1002.54
2022-07-25T11:12:50.705Z,1002.69
2022-07-25T11:13:50.640Z,1002.61
2022-07-25T11:14:50.579Z,1002.67
2022-07-25T11:15:50.547Z,1002.31
2022-07-25T11:16:50.636Z,1002.32
2022-07-25T11:17:50.429Z,1002.70
2022-07-25T11:18:50.372Z,1002.66
2022-07-25T11:19:50.319Z,1002.61
2022-07-25T11:20:50.287Z,1002.18
2022-07-25T11:21:50.237Z,1002.55
2022-07-25T11:22:50.191Z,1002.52
2022-07-25T11:23:50.146Z,1002.54
2022-07-25T11:24:50.099Z,1002.42
2022-07-25T11:25:50.175Z,1002.35
2022-07-25T11:26:49.940Z,1002.41
2022-07-25T11:27:49.892Z,1002.41
2022-07-25T11:28:49.855Z,1002.37
2022-07-25T11:29:49.807Z,1002.54
2022-07-25T11:30:49.820Z,1002.46
2022-07-25T11:31:49.775Z,1002.40
2022-07-25T11:32:49.634Z,1002.31
2022-07-25T11:33:49.505Z,1002.42
2022-07-25T11:34:49.465Z,1002.48
2022-07-25T11:35:49.451Z,1002.13
2022-07-25T11:36:49.405Z,1002.10
2022-07-25T11:37:49.407Z,1002.36
2022-07-25T11:38:49.260Z,1002.39
2022-07-25T11:39:49.220Z,1002.29
2022-07-25T11:40:49.180Z,1002.19
2022-07-25T11:41:49.144Z,1002.26
2022-07-25T11:42:49.105Z,1002.32
2022-07-25T11:43:49.074Z,1002.28
2022-07-25T11:44:49.027Z,1002.08
2022-07-25T11:45:49.017Z,1002.12
2022-07-25T11:46:48.950Z,1002.25
2022-07-25T11:47:48.933Z,1002.24
2022-07-25T11:48:48.938Z,1002.22
2022-07-25T11:49:48.887Z,1002.19
2022-07-25T11:50:48.856Z,1002.21
2022-07-25T11:51:48.816Z,1002.14
2022-07-25T11:52:48.783Z,1002.16
2022-07-25T11:53:48.751Z,1002.19
2022-07-25T11:54:48.714Z,1002.20
2022-07-25T11:55:48.670Z,1002.28
2022-07-25T11:56:48.634Z,1002.18
2022-07-25T11:57:48.599Z,1002.19
2022-07-25T11:58:48.549Z,1002.14
2022-07-25T11:59:48.508Z,1002.17
2022-07-25T12:00:48.475Z,1002.05
2022-07-25T12:01:48.514Z,1002.07
2022-07-25T12:02:48.508Z,1002.07
2022-07-25T12:03:48.367Z,1002.12
2022-07-25T12:04:48.230Z,1002.00
2022-07-25T12:05:48.222Z,1001.96
2022-07-25T12:06:48.187Z,1001.91